Terminal Aerodrome Forecast
Issued by NWS Miami, FL

Home | Current Version | Previous Version | Text Only | Print | Product List | Glossary On
Versions: 1 2 3 4 5 6 7 8 9 10 11 12 13 14 15 16 17 18 19 20 21 22 23 24 25 26 27 28 29 30 31 32
000
FTUS42 KMFL 241134
TAFPBI
TAF
KPBI 241134Z 2412/2512 22006KT P6SM FEW050 FEW150
     FM241500 23008KT P6SM VCSH SCT035 SCT050
     FM241800 24011KT P6SM VCTS SCT030CB BKN050
     FM250000 28005KT P6SM VCSH FEW030 SCT080 BKN120
     FM250300 28005KT P6SM SCT050 SCT150=

USA.gov is the U.S. government's official web portal to all federal, state and local government web resources and services.